Time;durP1;ratioP1;P1;durP2;ratioP2;P2;SDS_P1;SDS_P2;PMS_P1;PMS_P2;Temp;Humidity;BMP_temperature;BMP_pressure;BME280_temperature;BME280_humidity;BME280_pressure;Samples;Min_cycle;Max_cycle;Signal;HPM_P1;HPM_P2
2022/06/07 00:03:03;;;;;;;3.80;1.50;;;;;;;13.64;56.32;99779.75;10511902;28;20391;-66
2022/06/07 00:08:05;;;;;;;2.10;1.23;;;;;;;13.57;56.57;99776.75;10508343;28;20159;-66
2022/06/07 00:13:07;;;;;;;5.03;1.45;;;;;;;13.67;56.46;99769.03;10508941;28;20392;-66
2022/06/07 00:18:10;;;;;;;4.40;1.80;;;;;;;13.71;56.62;99773.09;10509577;28;20255;-65
2022/06/07 00:23:15;;;;;;;6.40;1.85;;;;;;;13.66;56.52;99772.59;10510789;28;20521;-66
2022/06/07 00:28:19;;;;;;;4.32;1.30;;;;;;;13.66;56.26;99772.59;10509670;28;20083;-65
2022/06/07 00:33:22;;;;;;;2.28;1.40;;;;;;;13.67;56.75;99771.66;10509870;28;20574;-65
2022/06/07 00:38:24;;;;;;;5.03;1.73;;;;;;;13.83;56.42;99766.06;10509704;28;20050;-65
2022/06/07 00:43:26;;;;;;;3.40;1.50;;;;;;;13.90;56.23;99767.28;10505962;28;20128;-66
2022/06/07 00:48:28;;;;;;;2.50;1.40;;;;;;;14.01;56.25;99762.88;10510570;28;20058;-65
2022/06/07 00:53:34;;;;;;;4.43;1.40;;;;;;;14.05;56.14;99766.94;10508526;28;20047;-65
2022/06/07 00:58:36;;;;;;;4.03;1.40;;;;;;;14.10;56.01;99756.94;10510118;28;20139;-66
2022/06/07 01:03:37;;;;;;;5.78;1.45;;;;;;;14.09;55.97;99768.38;10506894;28;20636;-66
2022/06/07 01:13:59;;;;;;;5.67;1.60;;;;;;;13.99;56.59;99762.16;10507606;28;20423;-65
2022/06/07 01:19:01;;;;;;;2.58;1.40;;;;;;;13.93;56.49;99757.38;10508898;28;20135;-65
2022/06/07 01:24:04;;;;;;;4.82;1.70;;;;;;;13.87;56.70;99755.22;10508052;28;20083;-65
2022/06/07 01:29:06;;;;;;;4.00;1.40;;;;;;;13.54;57.17;99757.72;10507811;28;20109;-66
2022/06/07 01:34:10;;;;;;;3.85;1.70;;;;;;;13.59;57.45;99763.50;10505287;28;20230;-66
2022/06/07 01:44:38;;;;;;;3.60;1.55;;;;;;;13.59;57.83;99753.84;10507840;28;20080;-65
2022/06/07 01:49:40;;;;;;;5.20;1.52;;;;;;;13.69;57.26;99757.44;10505551;28;20084;-66
2022/06/07 01:54:42;;;;;;;5.05;1.70;;;;;;;13.67;57.62;99750.63;10507435;28;20139;-66
2022/06/07 01:59:44;;;;;;;3.03;1.50;;;;;;;13.66;57.62;99748.94;10507951;28;20118;-66
2022/06/07 02:04:46;;;;;;;3.90;1.67;;;;;;;13.51;57.70;99740.44;10514140;28;20083;-65
2022/06/07 02:09:48;;;;;;;3.55;1.60;;;;;;;13.43;58.44;99741.94;10524258;28;20131;-65
2022/06/07 02:14:50;;;;;;;3.17;1.73;;;;;;;13.50;58.31;99748.41;10521758;28;20048;-66
2022/06/07 02:19:51;;;;;;;3.13;1.50;;;;;;;13.59;58.24;99745.94;10521754;28;20075;-65
2022/06/07 02:24:53;;;;;;;3.20;1.55;;;;;;;13.64;58.14;99735.06;10522831;28;20052;-65
2022/06/07 02:29:55;;;;;;;4.57;1.67;;;;;;;13.69;58.18;99733.78;10523490;28;20131;-65
2022/06/07 02:35:00;;;;;;;2.45;1.58;;;;;;;13.74;57.97;99736.06;10522863;28;20134;-67
2022/06/07 02:40:04;;;;;;;6.80;1.50;;;;;;;13.61;57.83;99735.31;10521452;28;20131;-65
2022/06/07 02:45:06;;;;;;;5.63;1.80;;;;;;;13.58;57.99;99728.50;10520643;28;20475;-65
2022/06/07 02:50:08;;;;;;;2.70;1.55;;;;;;;13.70;57.63;99729.34;10520000;28;20052;-66
2022/06/07 02:55:10;;;;;;;3.45;1.80;;;;;;;13.68;57.81;99720.75;10522235;28;20056;-65
2022/06/07 03:00:14;;;;;;;2.05;1.50;;;;;;;13.71;57.92;99729.25;10521206;28;20106;-65
2022/06/07 03:05:16;;;;;;;3.75;1.58;;;;;;;13.74;58.05;99736.91;10517608;28;20127;-67
2022/06/07 03:10:19;;;;;;;2.70;1.70;;;;;;;13.54;58.28;99728.84;10514704;28;20058;-66
2022/06/07 03:15:20;;;;;;;3.90;1.70;;;;;;;13.42;58.53;99733.22;10514100;28;20127;-65
2022/06/07 03:20:22;;;;;;;3.53;1.50;;;;;;;13.31;58.83;99735.75;10514442;28;20052;-66
2022/06/07 03:25:24;;;;;;;3.85;1.75;;;;;;;13.57;58.71;99733.88;10512849;28;20135;-66
2022/06/07 03:30:26;;;;;;;3.63;1.67;;;;;;;13.64;58.70;99727.19;10513518;28;20139;-65
2022/06/07 03:35:28;;;;;;;3.83;1.65;;;;;;;13.72;58.67;99732.69;10513543;28;20084;-66
2022/06/07 03:40:45;;;;;;;4.32;1.70;;;;;;;13.75;58.51;99738.59;10511953;28;20047;-67
2022/06/07 03:45:47;;;;;;;5.50;1.83;;;;;;;13.77;58.64;99736.69;10513650;28;20163;-66
2022/06/07 03:50:49;;;;;;;4.28;1.80;;;;;;;13.71;58.45;99747.66;10509437;28;20055;-65
2022/06/07 03:55:53;;;;;;;4.07;1.80;;;;;;;13.54;58.82;99739.34;10512636;28;20782;-67
2022/06/07 04:00:57;;;;;;;2.88;1.60;;;;;;;13.61;58.98;99727.44;10511530;28;20044;-66
2022/06/07 04:06:00;;;;;;;4.85;1.70;;;;;;;13.78;58.64;99732.22;10512584;28;20132;-66
2022/06/07 04:11:02;;;;;;;2.72;1.60;;;;;;;13.90;58.26;99738.38;10509164;28;20054;-67
2022/06/07 04:16:16;;;;;;;5.22;2.13;;;;;;;13.83;58.33;99738.00;10512594;28;20048;-66
2022/06/07 04:21:18;;;;;;;6.53;1.90;;;;;;;13.64;58.64;99735.91;10510993;28;20052;-66
2022/06/07 04:26:24;;;;;;;4.07;1.70;;;;;;;13.83;58.59;99727.47;10512179;28;20423;-66
2022/06/07 04:31:27;;;;;;;3.30;1.80;;;;;;;16.24;53.81;99727.88;10510423;28;20163;-66
2022/06/07 04:36:28;;;;;;;3.00;1.70;;;;;;;18.84;48.08;99717.00;10509642;28;20101;-65
2022/06/07 04:41:30;;;;;;;4.50;1.50;;;;;;;20.89;43.81;99714.47;10508392;28;20127;-67
2022/06/07 04:46:32;;;;;;;3.92;1.30;;;;;;;21.27;42.42;99724.56;10510515;28;20138;-66
2022/06/07 04:51:37;;;;;;;6.10;1.67;;;;;;;21.56;41.34;99719.59;10510054;28;20056;-66
2022/06/07 04:56:39;;;;;;;2.80;1.40;;;;;;;19.56;44.49;99732.81;10512083;28;20075;-66
2022/06/07 05:01:43;;;;;;;4.28;1.50;;;;;;;18.09;46.90;99739.19;10508803;28;20055;-66
2022/06/07 05:06:46;;;;;;;5.45;1.65;;;;;;;17.68;47.80;99745.69;10510802;28;20848;-66
2022/06/07 05:11:49;;;;;;;4.65;1.50;;;;;;;21.60;41.41;99728.91;10508280;28;20552;-66
2022/06/07 05:16:51;;;;;;;3.83;1.40;;;;;;;23.51;38.03;99728.56;10508973;28;20060;-65
2022/06/07 05:21:53;;;;;;;2.25;1.20;;;;;;;25.49;34.21;99730.06;10509845;28;20047;-65
2022/06/07 05:26:58;;;;;;;2.63;1.30;;;;;;;25.12;34.13;99730.31;10507232;28;20253;-66
2022/06/07 05:32:00;;;;;;;5.47;1.60;;;;;;;23.22;36.75;99732.75;10507978;28;20146;-66
2022/06/07 05:37:02;;;;;;;3.45;1.58;;;;;;;21.50;39.88;99736.22;10508003;28;20056;-64
2022/06/07 05:42:04;;;;;;;4.55;1.60;;;;;;;20.87;41.25;99738.59;10507209;28;20076;-67
2022/06/07 05:47:07;;;;;;;5.60;1.50;;;;;;;19.80;43.36;99749.75;10509180;28;20586;-65
2022/06/07 05:52:11;;;;;;;4.28;1.50;;;;;;;19.42;44.26;99745.59;10507864;28;20563;-64
2022/06/07 05:57:13;;;;;;;4.68;1.70;;;;;;;19.40;44.46;99738.78;10509530;28;20308;-65
2022/06/07 06:02:15;;;;;;;5.63;1.40;;;;;;;19.37;44.38;99742.59;10506865;28;20048;-65
2022/06/07 06:07:18;;;;;;;3.17;1.48;;;;;;;19.42;44.76;99740.31;10508059;28;20106;-65
2022/06/07 06:12:21;;;;;;;3.95;1.38;;;;;;;19.31;44.81;99735.25;10507172;28;20052;-65
2022/06/07 06:17:23;;;;;;;4.18;1.30;;;;;;;19.25;44.95;99737.66;10509088;28;20159;-65
2022/06/07 06:22:24;;;;;;;3.60;1.48;;;;;;;19.49;44.83;99735.22;10507273;28;20123;-65
2022/06/07 06:27:26;;;;;;;4.05;1.40;;;;;;;19.63;44.64;99732.03;10507152;28;20055;-65
2022/06/07 06:32:28;;;;;;;4.85;1.65;;;;;;;19.57;44.88;99731.81;10505685;28;20044;-67
2022/06/07 06:37:29;;;;;;;4.65;1.33;;;;;;;19.63;44.02;99732.03;10507905;28;20552;-65
2022/06/07 06:42:31;;;;;;;5.68;1.55;;;;;;;19.81;43.77;99735.50;10505384;28;20060;-66
2022/06/07 06:47:33;;;;;;;2.65;1.10;;;;;;;20.02;43.21;99725.38;10500063;28;20097;-66
2022/06/07 06:52:34;;;;;;;3.58;1.30;;;;;;;20.53;42.63;99724.47;10504813;28;20044;-66
2022/06/07 06:57:36;;;;;;;5.45;1.17;;;;;;;21.29;41.18;99719.06;10512696;28;20044;-66
2022/06/07 07:02:38;;;;;;;3.10;1.52;;;;;;;22.21;39.87;99717.69;10510965;28;20044;-66
2022/06/07 07:07:40;;;;;;;4.57;1.40;;;;;;;23.76;36.89;99701.44;10504881;28;20056;-66
2022/06/07 07:12:42;;;;;;;2.97;1.20;;;;;;;25.30;34.57;99693.22;10513135;28;20546;-66
2022/06/07 07:17:46;;;;;;;6.25;1.23;;;;;;;27.09;32.09;99686.91;10511579;28;20351;-66
2022/06/07 07:22:48;;;;;;;4.20;1.20;;;;;;;28.20;30.05;99684.22;10510515;28;20054;-66
2022/06/07 07:27:50;;;;;;;4.20;1.20;;;;;;;28.70;28.74;99678.09;10510734;28;20075;-66
2022/06/07 07:32:51;;;;;;;5.03;1.20;;;;;;;28.99;27.38;99680.22;10512503;28;20070;-66
2022/06/07 07:37:53;;;;;;;2.55;0.82;;;;;;;29.40;26.83;99677.06;10509361;28;20036;-66
2022/06/07 07:42:56;;;;;;;4.28;1.20;;;;;;;29.69;26.30;99672.91;10500992;28;20290;-66
2022/06/07 07:47:58;;;;;;;3.13;1.15;;;;;;;29.49;25.30;99669.56;10509826;28;20060;-65
2022/06/07 07:53:00;;;;;;;2.33;1.00;;;;;;;29.10;25.25;99667.94;10511171;28;20214;-66
2022/06/07 07:58:02;;;;;;;2.33;0.90;;;;;;;29.19;25.11;99661.28;10511482;28;20135;-65
2022/06/07 08:03:03;;;;;;;2.55;1.10;;;;;;;29.23;25.15;99654.41;10509428;28;20048;-65
2022/06/07 08:08:05;;;;;;;4.22;1.30;;;;;;;30.04;24.52;99657.88;10509793;28;20055;-65
2022/06/07 08:13:07;;;;;;;2.58;1.02;;;;;;;29.91;23.80;99657.97;10510180;28;20058;-71
2022/06/07 08:18:09;;;;;;;3.42;1.02;;;;;;;29.53;24.53;99651.91;10509738;28;20052;-68
2022/06/07 08:23:12;;;;;;;3.58;0.98;;;;;;;30.08;23.56;99648.28;10512170;28;20135;-68
2022/06/07 08:28:14;;;;;;;2.20;0.90;;;;;;;30.44;22.52;99648.25;10508189;28;20488;-70
2022/06/07 08:38:57;;;;;;;2.08;0.75;;;;;;;29.14;22.84;99638.69;10457276;28;20052;-71
2022/06/07 08:44:07;;;;;;;2.75;1.00;;;;;;;28.74;21.98;99640.81;10505092;28;20123;-70
2022/06/07 08:49:12;;;;;;;8.23;0.90;;;;;;;28.90;22.63;99638.47;10505674;28;20515;-71
2022/06/07 08:54:18;;;;;;;4.18;0.80;;;;;;;28.22;23.48;99645.34;10501516;28;20105;-71
2022/06/07 08:59:21;;;;;;;2.00;0.80;;;;;;;28.35;23.24;99646.38;10504101;28;20143;-71
2022/06/07 09:04:30;;;;;;;1.35;0.90;;;;;;;27.90;23.25;99643.56;10503512;28;20221;-71
2022/06/07 09:15:11;;;;;;;1.88;0.93;;;;;;;28.84;22.41;99636.63;10500228;28;20525;-70
2022/06/07 09:20:23;;;;;;;3.38;0.90;;;;;;;28.38;23.21;99630.63;10500863;28;20252;-70
2022/06/07 09:25:35;;;;;;;1.83;1.00;;;;;;;29.03;23.31;99630.28;10496629;28;20496;-70
2022/06/07 09:30:46;;;;;;;2.83;0.90;;;;;;;29.13;22.66;99620.91;10497220;28;20111;-71
2022/06/07 09:35:49;;;;;;;1.35;0.80;;;;;;;28.72;23.76;99627.56;10500543;28;20054;-71
2022/06/07 09:40:53;;;;;;;1.67;0.75;;;;;;;27.50;24.63;99623.16;10504678;28;20083;-70
2022/06/07 09:45:59;;;;;;;1.75;0.90;;;;;;;26.92;25.41;99626.56;10503996;28;20523;-70
2022/06/07 09:51:14;;;;;;;4.32;0.90;;;;;;;26.67;26.28;99619.09;10504011;28;20056;-69
2022/06/07 09:56:34;;;;;;;2.05;1.10;;;;;;;27.27;25.04;99620.88;10502324;28;20063;-70
2022/06/07 10:01:49;;;;;;;2.65;0.90;;;;;;;27.38;24.60;99617.56;10504043;28;20247;-70
2022/06/07 10:06:58;;;;;;;2.58;1.00;;;;;;;27.14;25.11;99609.25;10490618;28;20470;-69
2022/06/07 10:12:31;;;;;;;3.92;0.95;;;;;;;27.56;24.65;99600.81;10504113;28;20050;-71
2022/06/07 10:17:55;;;;;;;2.42;0.90;;;;;;;28.55;23.66;99602.19;10503994;28;20044;-69
2022/06/07 10:22:59;;;;;;;1.25;0.70;;;;;;;28.20;23.49;99600.88;10506844;28;20449;-71
2022/06/07 10:28:17;;;;;;;1.58;0.82;;;;;;;27.34;23.52;99600.19;10510871;28;20147;-70
2022/06/07 10:33:47;;;;;;;1.98;0.93;;;;;;;27.60;24.07;99593.16;10513982;28;20498;-69
2022/06/07 10:39:05;;;;;;;1.92;0.90;;;;;;;28.05;23.66;99589.56;10513938;28;20048;-69
2022/06/07 10:44:46;;;;;;;2.42;0.98;;;;;;;27.50;24.28;99589.03;10512723;28;20044;-70
2022/06/07 10:50:03;;;;;;;1.67;0.90;;;;;;;27.66;24.37;99581.56;10512281;28;20147;-70
2022/06/07 10:55:07;;;;;;;2.63;1.00;;;;;;;27.47;24.75;99586.78;10512086;28;20083;-70
2022/06/07 11:00:26;;;;;;;3.47;1.00;;;;;;;27.31;25.53;99589.06;10513856;28;20093;-69
2022/06/07 11:10:57;;;;;;;2.40;1.00;;;;;;;26.69;26.26;99576.78;10512699;28;20229;-70
2022/06/07 11:16:18;;;;;;;1.95;0.98;;;;;;;26.69;26.20;99574.09;10507778;28;20068;-69
2022/06/07 11:21:29;;;;;;;3.97;1.00;;;;;;;26.88;26.85;99583.22;10508097;28;20055;-69
2022/06/07 11:26:54;;;;;;;2.50;1.13;;;;;;;26.49;27.00;99577.75;10508197;28;20083;-68
2022/06/07 11:31:57;;;;;;;3.92;1.10;;;;;;;26.40;27.68;99571.75;10503625;28;20051;-69
2022/06/07 11:37:21;;;;;;;3.53;1.10;;;;;;;26.56;27.58;99573.25;10508367;28;20147;-68
2022/06/07 11:42:33;;;;;;;4.00;1.17;;;;;;;26.91;26.89;99566.72;10507241;28;20048;-71
2022/06/07 11:48:04;;;;;;;7.20;1.20;;;;;;;26.51;27.94;99565.78;10507931;28;20048;-70
2022/06/07 11:53:49;;;;;;;3.85;1.08;;;;;;;26.68;29.73;99564.44;10510170;28;20083;-71
2022/06/07 11:59:21;;;;;;;3.50;1.27;;;;;;;26.57;28.61;99559.66;10453273;28;20484;-70
2022/06/07 12:04:41;;;;;;;4.45;1.20;;;;;;;26.36;28.70;99557.09;10495667;28;20492;-70
2022/06/07 12:09:51;;;;;;;2.90;1.10;;;;;;;26.57;28.39;99554.28;10503839;28;20123;-70
2022/06/07 12:15:03;;;;;;;2.80;1.30;;;;;;;26.15;29.29;99542.97;10506946;28;20244;-70
2022/06/07 12:20:06;;;;;;;2.35;1.05;;;;;;;26.31;28.77;99542.63;10507500;28;20416;-71
2022/06/07 12:25:16;;;;;;;3.10;1.38;;;;;;;26.24;29.27;99542.59;10507377;28;20052;-69
2022/06/07 12:30:30;;;;;;;2.67;1.10;;;;;;;26.64;28.40;99536.34;10505626;28;20407;-70
2022/06/07 12:35:32;;;;;;;3.13;1.33;;;;;;;26.41;28.84;99540.38;10507918;28;20512;-70
2022/06/07 12:40:53;;;;;;;5.93;1.30;;;;;;;26.17;29.28;99533.72;10505001;28;20166;-68
2022/06/07 12:46:17;;;;;;;3.47;1.10;;;;;;;25.79;30.15;99527.16;10490137;28;20079;-68
2022/06/07 12:51:35;;;;;;;2.72;1.10;;;;;;;26.47;29.92;99521.63;10505461;28;20156;-68
2022/06/07 12:56:41;;;;;;;3.30;1.05;;;;;;;26.77;29.13;99522.13;10505187;28;20055;-68
2022/06/07 13:01:46;;;;;;;5.38;1.27;;;;;;;26.27;29.76;99518.09;10509113;28;20072;-68
2022/06/07 13:07:03;;;;;;;2.20;1.00;;;;;;;26.10;29.52;99510.63;10508887;28;20040;-70
2022/06/07 13:12:40;;;;;;;3.60;1.08;;;;;;;25.83;30.48;99513.13;10507941;28;20059;-71
2022/06/07 13:17:59;;;;;;;2.65;1.08;;;;;;;25.39;30.84;99511.88;10503606;28;20198;-71
2022/06/07 13:23:12;;;;;;;2.65;0.98;;;;;;;25.49;30.11;99505.13;10504386;28;21009;-70
2022/06/07 13:28:19;;;;;;;3.17;1.15;;;;;;;26.40;29.52;99487.78;10506662;28;20083;-72
2022/06/07 13:33:21;;;;;;;4.30;1.20;;;;;;;26.13;29.60;99494.94;10502183;28;20139;-70
2022/06/07 13:38:29;;;;;;;4.30;1.08;;;;;;;25.88;29.49;99480.38;10503146;28;20052;-68
2022/06/07 13:43:31;;;;;;;1.85;0.90;;;;;;;25.32;30.59;99477.00;10505944;28;20137;-70
2022/06/07 13:53:58;;;;;;;2.05;0.98;;;;;;;25.82;30.87;99474.00;10503966;28;20506;-71
2022/06/07 13:59:00;;;;;;;1.52;1.05;;;;;;;25.99;30.96;99465.63;10507373;28;20903;-70
2022/06/07 14:04:31;;;;;;;2.08;0.90;;;;;;;26.02;31.34;99462.56;10503265;28;20054;-71
2022/06/07 14:09:33;;;;;;;1.60;0.95;;;;;;;26.45;30.81;99462.00;10501495;28;20052;-70
2022/06/07 14:14:35;;;;;;;1.10;0.77;;;;;;;26.09;30.76;99447.31;10505184;28;20397;-70
2022/06/07 14:19:44;;;;;;;2.38;0.90;;;;;;;26.12;30.89;99439.66;10505063;28;20058;-69
2022/06/07 14:24:49;;;;;;;3.80;1.25;;;;;;;25.65;32.01;99439.72;10502777;28;20063;-71
2022/06/07 14:29:53;;;;;;;3.05;0.77;;;;;;;25.51;32.10;99443.38;10505415;28;20159;-71
2022/06/07 14:34:56;;;;;;;1.85;0.80;;;;;;;25.17;32.51;99451.38;10488078;28;20151;-70
2022/06/07 14:39:58;;;;;;;2.67;1.00;;;;;;;25.17;32.73;99452.19;10505319;28;20055;-71
2022/06/07 14:45:00;;;;;;;3.25;0.73;;;;;;;25.17;32.91;99465.59;10503103;28;20484;-71
2022/06/07 14:50:03;;;;;;;3.28;0.98;;;;;;;24.78;34.33;99479.50;10503184;28;20439;-71
2022/06/07 14:55:12;;;;;;;1.95;0.98;;;;;;;24.68;38.22;99488.84;10503294;28;20063;-71
2022/06/07 15:00:21;;;;;;;4.85;0.90;;;;;;;25.14;38.38;99479.38;10499868;28;20139;-69
2022/06/07 15:05:27;;;;;;;2.38;1.00;;;;;;;25.42;36.67;99471.31;10503781;28;20050;-71
2022/06/07 15:10:35;;;;;;;1.35;0.80;;;;;;;25.30;35.92;99468.34;10501649;28;20183;-71
2022/06/07 15:15:37;;;;;;;0.93;0.70;;;;;;;24.63;35.62;99475.22;10508976;28;20318;-71
2022/06/07 15:20:40;;;;;;;1.52;0.70;;;;;;;24.47;35.99;99470.16;10512256;28;20138;-71
2022/06/07 15:25:42;;;;;;;3.05;1.00;;;;;;;24.93;35.90;99461.53;10508536;28;20048;-72
2022/06/07 15:30:45;;;;;;;1.45;0.80;;;;;;;25.02;35.62;99459.50;10509758;28;20162;-71
2022/06/07 15:35:48;;;;;;;1.55;0.70;;;;;;;24.83;35.76;99457.53;10504274;28;20103;-71
2022/06/07 15:40:50;;;;;;;1.95;0.80;;;;;;;24.48;35.79;99451.22;10510003;28;20411;-69
2022/06/07 15:45:51;;;;;;;1.42;0.90;;;;;;;24.33;36.14;99457.69;10505684;28;20151;-71
2022/06/07 15:50:59;;;;;;;1.52;0.80;;;;;;;24.42;36.76;99461.88;10499907;28;20102;-71
2022/06/07 15:56:07;;;;;;;1.65;0.80;;;;;;;24.75;36.22;99453.16;10504115;28;20071;-71
2022/06/07 16:01:09;;;;;;;1.70;0.88;;;;;;;24.82;36.14;99453.19;10505363;28;20056;-71
2022/06/07 16:06:11;;;;;;;0.82;0.70;;;;;;;24.61;36.40;99445.97;10507186;28;20048;-71
2022/06/07 16:11:13;;;;;;;1.52;0.85;;;;;;;24.58;37.28;99446.38;10503310;28;20052;-71
2022/06/07 16:16:16;;;;;;;3.17;1.25;;;;;;;24.34;37.22;99444.13;10505062;28;20146;-71
2022/06/07 16:21:18;;;;;;;1.52;0.88;;;;;;;24.08;37.88;99450.00;10502954;28;20048;-70
2022/06/07 16:26:20;;;;;;;1.48;0.90;;;;;;;24.15;37.94;99456.25;10505201;28;20094;-71
2022/06/07 16:36:44;;;;;;;1.60;0.90;;;;;;;24.11;38.93;99465.66;10506299;28;20059;-71
2022/06/07 16:41:46;;;;;;;2.58;0.95;;;;;;;23.86;39.44;99483.00;10502773;28;20138;-71
2022/06/07 16:46:53;;;;;;;2.20;0.90;;;;;;;23.68;40.29;99479.91;10504050;28;20056;-71
2022/06/07 16:51:59;;;;;;;2.03;0.90;;;;;;;23.45;40.97;99497.91;10500523;28;20411;-71
2022/06/07 16:57:04;;;;;;;3.25;1.00;;;;;;;23.14;41.74;99499.88;10479113;28;20570;-71
2022/06/07 17:02:06;;;;;;;3.65;1.00;;;;;;;23.00;42.46;99495.34;10497885;28;20040;-71
2022/06/07 17:07:08;;;;;;;4.47;1.30;;;;;;;22.78;43.24;99494.34;10500546;28;20553;-71
2022/06/07 17:12:10;;;;;;;2.85;1.10;;;;;;;22.64;44.06;99503.94;10502852;28;20076;-71
2022/06/07 17:17:12;;;;;;;4.00;1.00;;;;;;;22.68;44.10;99509.72;10502433;28;20138;-69
2022/06/07 17:22:14;;;;;;;1.52;1.00;;;;;;;22.75;43.45;99502.72;10505663;28;20055;-70
2022/06/07 17:27:16;;;;;;;1.67;1.02;;;;;;;22.64;43.61;99517.28;10504703;28;20117;-70
2022/06/07 17:32:17;;;;;;;2.45;0.90;;;;;;;22.38;43.79;99510.63;10503026;28;20857;-70
2022/06/07 17:37:19;;;;;;;1.00;0.80;;;;;;;22.12;43.88;99510.97;10503102;28;20051;-68
2022/06/07 17:42:22;;;;;;;0.95;0.70;;;;;;;22.06;43.40;99513.50;10503357;28;20135;-70
2022/06/07 17:47:25;;;;;;;2.40;0.80;;;;;;;22.11;43.51;99516.47;10505537;28;20168;-70
2022/06/07 17:52:42;;;;;;;1.45;0.80;;;;;;;22.01;44.69;99513.97;10504700;28;20044;-70
2022/06/07 17:57:45;;;;;;;2.83;1.10;;;;;;;22.02;45.81;99520.97;10499549;28;20040;-71
2022/06/07 18:02:48;;;;;;;1.65;0.90;;;;;;;21.92;45.80;99519.53;10501786;28;20143;-71
2022/06/07 18:07:51;;;;;;;4.30;0.85;;;;;;;21.84;45.93;99521.22;10500264;28;20453;-71
2022/06/07 18:12:55;;;;;;;1.55;0.90;;;;;;;21.77;45.80;99516.78;10501150;28;20299;-71
2022/06/07 18:17:56;;;;;;;2.35;1.05;;;;;;;21.68;46.10;99517.81;10506894;28;20121;-69
2022/06/07 18:22:58;;;;;;;1.38;0.82;;;;;;;21.69;46.40;99511.47;10502273;28;20075;-70
2022/06/07 18:28:02;;;;;;;3.35;1.02;;;;;;;21.65;46.70;99502.19;10502529;28;20163;-71
2022/06/07 18:33:04;;;;;;;1.77;1.10;;;;;;;21.42;46.80;99506.56;10504694;28;20420;-71
2022/06/07 18:38:09;;;;;;;1.13;0.88;;;;;;;21.27;47.38;99503.78;10505918;28;20525;-71
2022/06/07 18:43:18;;;;;;;0.85;0.80;;;;;;;20.95;48.53;99509.97;10499135;28;20117;-71
2022/06/07 18:48:21;;;;;;;0.95;0.70;;;;;;;20.81;48.72;99505.31;10499892;28;20125;-71
2022/06/07 18:53:27;;;;;;;1.77;1.00;;;;;;;20.74;48.55;99511.47;10494213;28;20795;-71
2022/06/07 18:58:30;;;;;;;1.95;0.80;;;;;;;20.59;48.67;99510.47;10494171;28;20062;-71
2022/06/07 19:03:32;;;;;;;1.30;1.10;;;;;;;20.36;48.98;99512.91;10494272;28;20144;-71
2022/06/07 19:08:41;;;;;;;1.73;0.90;;;;;;;20.37;48.63;99519.06;10504635;28;20054;-71
2022/06/07 19:13:45;;;;;;;0.75;0.52;;;;;;;20.18;48.52;99520.16;10508034;28;20055;-71
2022/06/07 19:18:54;;;;;;;1.25;0.77;;;;;;;20.07;48.87;99525.81;10500042;28;20095;-71
2022/06/07 19:23:56;;;;;;;2.55;0.73;;;;;;;20.05;48.87;99527.78;10501136;28;20181;-71
2022/06/07 19:28:58;;;;;;;1.10;0.70;;;;;;;19.84;49.08;99536.16;10506126;28;20189;-71
2022/06/07 19:34:00;;;;;;;0.93;0.73;;;;;;;19.71;49.40;99541.03;10501735;28;20968;-71
2022/06/07 19:39:02;;;;;;;2.38;0.70;;;;;;;19.65;49.75;99551.47;10507968;28;20428;-71
2022/06/07 19:44:05;;;;;;;0.55;0.55;;;;;;;19.46;49.81;99550.69;10506346;28;20052;-71
2022/06/07 19:49:07;;;;;;;0.70;0.70;;;;;;;19.57;50.20;99554.06;10509483;28;20158;-69
2022/06/07 19:54:09;;;;;;;3.22;0.60;;;;;;;19.56;50.04;99555.06;10505534;28;20062;-63
2022/06/07 19:59:11;;;;;;;1.65;0.90;;;;;;;19.51;49.97;99558.19;10486899;28;20078;-62
2022/06/07 20:04:13;;;;;;;1.55;0.90;;;;;;;19.44;50.32;99557.97;10504064;28;20101;-62
2022/06/07 20:09:15;;;;;;;2.15;0.90;;;;;;;19.44;50.39;99557.97;10507260;28;20040;-61
2022/06/07 20:14:17;;;;;;;3.55;0.77;;;;;;;19.25;50.78;99558.22;10505245;28;20052;-62
2022/06/07 20:19:19;;;;;;;1.10;0.80;;;;;;;19.18;51.34;99559.81;10504794;28;20143;-62
2022/06/07 20:24:20;;;;;;;1.02;0.80;;;;;;;19.11;51.33;99553.47;10509693;28;20083;-62
2022/06/07 20:29:22;;;;;;;1.73;0.88;;;;;;;19.07;51.70;99557.41;10508046;28;20138;-62
2022/06/07 20:34:34;;;;;;;1.50;1.10;;;;;;;18.98;51.64;99558.31;10509226;28;20584;-62
2022/06/07 20:39:39;;;;;;;0.98;0.80;;;;;;;18.86;51.94;99556.03;10507807;28;20075;-62
2022/06/07 20:44:42;;;;;;;3.30;0.90;;;;;;;18.63;52.89;99574.22;10507101;28;20052;-62
2022/06/07 20:49:48;;;;;;;1.63;0.90;;;;;;;18.49;53.61;99572.09;10510180;28;20048;-62
2022/06/07 20:54:49;;;;;;;3.13;1.00;;;;;;;18.49;53.27;99574.75;10508758;28;20056;-62
2022/06/07 20:59:51;;;;;;;1.17;0.88;;;;;;;18.54;53.65;99561.91;10508690;28;20226;-62
2022/06/07 21:04:54;;;;;;;2.13;1.00;;;;;;;18.63;53.58;99568.91;10509703;28;20104;-63
2022/06/07 21:09:56;;;;;;;3.05;0.90;;;;;;;18.67;54.09;99566.81;10509079;28;20042;-61
2022/06/07 21:14:57;;;;;;;2.75;1.00;;;;;;;18.55;54.75;99563.53;10509257;28;20147;-62
2022/06/07 21:19:59;;;;;;;2.47;1.20;;;;;;;18.52;54.44;99563.84;10507983;28;20670;-63
2022/06/07 21:25:01;;;;;;;7.25;1.05;;;;;;;18.47;54.49;99571.41;10507273;28;20050;-61
2022/06/07 21:30:08;;;;;;;1.77;1.13;;;;;;;18.42;54.74;99577.16;10508935;28;20570;-61
2022/06/07 21:35:11;;;;;;;2.13;0.68;;;;;;;18.15;54.66;99581.63;10509479;28;20132;-61
2022/06/07 21:40:14;;;;;;;1.90;0.98;;;;;;;17.91;55.11;99568.09;10506066;28;20408;-62
2022/06/07 21:45:15;;;;;;;1.13;0.80;;;;;;;17.74;55.20;99572.34;10509252;28;20048;-61
2022/06/07 21:50:19;;;;;;;4.47;1.10;;;;;;;17.69;55.50;99571.94;10507549;28;20052;-61
2022/06/07 21:55:24;;;;;;;2.88;1.25;;;;;;;17.59;55.44;99573.78;10506640;28;20067;-61
2022/06/07 22:00:35;;;;;;;1.67;1.00;;;;;;;17.38;56.25;99567.88;10507119;28;20457;-61
2022/06/07 22:05:43;;;;;;;2.50;1.15;;;;;;;17.23;56.61;99550.78;10506820;28;20040;-62
2022/06/07 22:10:47;;;;;;;3.35;1.20;;;;;;;17.14;56.79;99538.44;10506731;28;20044;-61
2022/06/07 22:15:50;;;;;;;0.80;0.80;;;;;;;17.00;56.99;99560.81;10507198;28;20050;-61
2022/06/07 22:20:53;;;;;;;3.10;1.08;;;;;;;16.94;57.13;99556.09;10506640;28;20055;-61
2022/06/07 22:25:54;;;;;;;1.85;1.00;;;;;;;16.95;57.18;99553.34;10515266;28;20476;-62
2022/06/07 22:30:56;;;;;;;2.05;1.00;;;;;;;16.96;56.97;99541.78;10516371;28;20087;-61
2022/06/07 22:35:58;;;;;;;4.68;1.13;;;;;;;17.17;56.76;99535.50;10514197;28;20047;-62
2022/06/07 22:40:59;;;;;;;1.60;1.00;;;;;;;17.31;56.37;99527.94;10515070;28;20044;-61
2022/06/07 22:46:01;;;;;;;1.25;1.00;;;;;;;17.39;56.30;99525.44;10514456;28;20040;-61
2022/06/07 22:51:06;;;;;;;1.67;1.00;;;;;;;17.39;56.28;99514.88;10515458;28;20055;-61
2022/06/07 22:56:09;;;;;;;2.38;0.88;;;;;;;17.41;55.95;99512.91;10514498;28;20214;-62
2022/06/07 23:01:16;;;;;;;1.90;0.93;;;;;;;17.46;56.00;99507.19;10514855;28;20146;-61
2022/06/07 23:06:21;;;;;;;1.83;1.00;;;;;;;17.40;56.04;99505.13;10512275;28;20504;-61
2022/06/07 23:11:23;;;;;;;1.33;0.90;;;;;;;17.33;56.23;99499.59;10512909;28;20403;-61
2022/06/07 23:21:45;;;;;;;1.77;1.00;;;;;;;17.27;55.97;99491.38;10511796;28;20131;-61
2022/06/07 23:26:47;;;;;;;2.40;0.90;;;;;;;17.20;55.96;99493.75;10511026;28;20051;-62
2022/06/07 23:31:49;;;;;;;1.55;0.90;;;;;;;17.16;56.38;99489.72;10513618;28;20389;-62
2022/06/07 23:36:50;;;;;;;4.68;1.10;;;;;;;17.17;56.14;99487.91;10510111;28;20052;-62
2022/06/07 23:41:53;;;;;;;2.63;0.90;;;;;;;17.16;56.21;99494.19;10511746;28;20138;-61
2022/06/07 23:47:18;;;;;;;1.35;0.80;;;;;;;17.18;56.33;99489.59;10512392;28;20048;-61
2022/06/07 23:52:26;;;;;;;2.85;0.95;;;;;;;17.14;56.09;99494.31;10510707;28;20140;-62
2022/06/07 23:57:28;;;;;;;1.85;1.00;;;;;;;17.04;56.31;99490.88;10511190;28;20508;-61
